sensor_id;sensor_type;location;lat;lon;timestamp;P1;durP1;ratioP1;P2;durP2;ratioP2
26050;SDS011;13825;53.496;10.020;2023-04-01T05:31:54;6.20;;;3.80;;
26050;SDS011;13825;53.496;10.020;2023-04-01T05:34:24;5.33;;;3.77;;
26050;SDS011;13825;53.496;10.020;2023-04-01T05:36:51;6.03;;;4.07;;
26050;SDS011;13825;53.496;10.020;2023-04-01T05:39:18;6.00;;;3.80;;
26050;SDS011;13825;53.496;10.020;2023-04-01T05:41:45;6.03;;;4.13;;
26050;SDS011;13825;53.496;10.020;2023-04-01T05:44:12;6.13;;;3.93;;
26050;SDS011;13825;53.496;10.020;2023-04-01T05:46:42;7.87;;;4.83;;
26050;SDS011;13825;53.496;10.020;2023-04-01T05:49:14;8.20;;;4.63;;
26050;SDS011;13825;53.496;10.020;2023-04-01T05:51:46;8.03;;;4.70;;
26050;SDS011;13825;53.496;10.020;2023-04-01T05:54:14;5.47;;;3.83;;
26050;SDS011;13825;53.496;10.020;2023-04-01T05:56:46;7.50;;;4.43;;
26050;SDS011;13825;53.496;10.020;2023-04-01T05:59:13;7.23;;;4.87;;
26050;SDS011;13825;53.496;10.020;2023-04-01T06:01:40;10.07;;;4.60;;
26050;SDS011;13825;53.496;10.020;2023-04-01T06:04:10;7.63;;;4.97;;
26050;SDS011;13825;53.496;10.020;2023-04-01T06:06:42;8.10;;;4.97;;
26050;SDS011;13825;53.496;10.020;2023-04-01T06:09:12;3.10;;;1.80;;
26050;SDS011;13825;53.496;10.020;2023-04-01T06:11:43;1.63;;;1.30;;
26050;SDS011;13825;53.496;10.020;2023-04-01T06:14:22;1.50;;;1.27;;
26050;SDS011;13825;53.496;10.020;2023-04-01T06:17:01;1.13;;;0.90;;
26050;SDS011;13825;53.496;10.020;2023-04-01T06:19:47;1.07;;;0.97;;
26050;SDS011;13825;53.496;10.020;2023-04-01T06:22:33;1.07;;;0.90;;
26050;SDS011;13825;53.496;10.020;2023-04-01T06:28:27;0.87;;;0.80;;
26050;SDS011;13825;53.496;10.020;2023-04-01T06:31:21;1.33;;;1.10;;
26050;SDS011;13825;53.496;10.020;2023-04-01T06:34:06;1.63;;;0.70;;
26050;SDS011;13825;53.496;10.020;2023-04-01T06:36:50;3.23;;;0.90;;
26050;SDS011;13825;53.496;10.020;2023-04-01T06:39:39;1.30;;;1.20;;
26050;SDS011;13825;53.496;10.020;2023-04-01T06:42:19;1.80;;;1.10;;
26050;SDS011;13825;53.496;10.020;2023-04-01T06:45:03;3.47;;;1.53;;
26050;SDS011;13825;53.496;10.020;2023-04-01T06:47:45;1.00;;;0.80;;
26050;SDS011;13825;53.496;10.020;2023-04-01T06:50:22;2.13;;;0.97;;
26050;SDS011;13825;53.496;10.020;2023-04-01T06:52:56;0.93;;;0.90;;
26050;SDS011;13825;53.496;10.020;2023-04-01T06:55:34;0.70;;;0.70;;
26050;SDS011;13825;53.496;10.020;2023-04-01T06:58:11;2.27;;;1.10;;
26050;SDS011;13825;53.496;10.020;2023-04-01T07:00:46;1.47;;;1.20;;
26050;SDS011;13825;53.496;10.020;2023-04-01T07:03:19;1.20;;;1.10;;
26050;SDS011;13825;53.496;10.020;2023-04-01T07:05:55;1.27;;;1.10;;
26050;SDS011;13825;53.496;10.020;2023-04-01T07:08:25;0.97;;;0.93;;
26050;SDS011;13825;53.496;10.020;2023-04-01T07:10:56;1.10;;;1.00;;
26050;SDS011;13825;53.496;10.020;2023-04-01T07:13:29;1.13;;;0.97;;
26050;SDS011;13825;53.496;10.020;2023-04-01T07:16:04;3.13;;;1.20;;
26050;SDS011;13825;53.496;10.020;2023-04-01T07:18:40;1.37;;;1.00;;
26050;SDS011;13825;53.496;10.020;2023-04-01T07:21:10;1.20;;;1.10;;
26050;SDS011;13825;53.496;10.020;2023-04-01T07:23:47;3.27;;;1.00;;
26050;SDS011;13825;53.496;10.020;2023-04-01T07:26:19;3.60;;;1.43;;
26050;SDS011;13825;53.496;10.020;2023-04-01T07:28:48;2.40;;;0.90;;
26050;SDS011;13825;53.496;10.020;2023-04-01T07:31:25;1.20;;;1.00;;
26050;SDS011;13825;53.496;10.020;2023-04-01T07:34:08;2.70;;;1.00;;
26050;SDS011;13825;53.496;10.020;2023-04-01T07:36:39;0.80;;;0.80;;
26050;SDS011;13825;53.496;10.020;2023-04-01T07:39:19;0.80;;;0.70;;
26050;SDS011;13825;53.496;10.020;2023-04-01T07:41:57;1.67;;;1.03;;
26050;SDS011;13825;53.496;10.020;2023-04-01T07:44:33;2.13;;;0.83;;
26050;SDS011;13825;53.496;10.020;2023-04-01T07:47:13;1.03;;;0.80;;
26050;SDS011;13825;53.496;10.020;2023-04-01T07:49:56;1.63;;;0.60;;
26050;SDS011;13825;53.496;10.020;2023-04-01T07:52:32;0.67;;;0.67;;
26050;SDS011;13825;53.496;10.020;2023-04-01T07:55:06;1.33;;;1.20;;
26050;SDS011;13825;53.496;10.020;2023-04-01T07:57:40;2.20;;;0.97;;
26050;SDS011;13825;53.496;10.020;2023-04-01T08:00:15;0.77;;;0.77;;
26050;SDS011;13825;53.496;10.020;2023-04-01T08:02:54;0.83;;;0.80;;
26050;SDS011;13825;53.496;10.020;2023-04-01T08:05:37;1.63;;;1.10;;
26050;SDS011;13825;53.496;10.020;2023-04-01T08:08:13;0.60;;;0.60;;
26050;SDS011;13825;53.496;10.020;2023-04-01T08:10:47;2.17;;;1.13;;
26050;SDS011;13825;53.496;10.020;2023-04-01T08:13:20;1.23;;;1.13;;
26050;SDS011;13825;53.496;10.020;2023-04-01T08:15:57;1.63;;;0.93;;
26050;SDS011;13825;53.496;10.020;2023-04-01T08:18:36;2.27;;;1.30;;
26050;SDS011;13825;53.496;10.020;2023-04-01T08:21:10;2.27;;;1.10;;
26050;SDS011;13825;53.496;10.020;2023-04-01T08:23:41;1.27;;;1.17;;
26050;SDS011;13825;53.496;10.020;2023-04-01T08:26:13;1.10;;;1.00;;
26050;SDS011;13825;53.496;10.020;2023-04-01T08:28:50;0.83;;;0.83;;
26050;SDS011;13825;53.496;10.020;2023-04-01T08:31:22;1.17;;;1.00;;
26050;SDS011;13825;53.496;10.020;2023-04-01T08:33:55;1.57;;;0.90;;
26050;SDS011;13825;53.496;10.020;2023-04-01T08:36:24;0.97;;;0.90;;
26050;SDS011;13825;53.496;10.020;2023-04-01T08:38:57;0.97;;;0.73;;
26050;SDS011;13825;53.496;10.020;2023-04-01T08:41:46;0.80;;;0.80;;
26050;SDS011;13825;53.496;10.020;2023-04-01T08:44:39;1.07;;;0.87;;
26050;SDS011;13825;53.496;10.020;2023-04-01T08:53:34;0.67;;;0.63;;
26050;SDS011;13825;53.496;10.020;2023-04-01T08:56:14;1.13;;;1.00;;
26050;SDS011;13825;53.496;10.020;2023-04-01T09:04:33;1.50;;;0.90;;
26050;SDS011;13825;53.496;10.020;2023-04-01T09:07:19;1.40;;;1.10;;
26050;SDS011;13825;53.496;10.020;2023-04-01T09:10:10;1.87;;;1.27;;
26050;SDS011;13825;53.496;10.020;2023-04-01T09:12:53;1.83;;;1.27;;
26050;SDS011;13825;53.496;10.020;2023-04-01T09:15:45;0.80;;;0.80;;
26050;SDS011;13825;53.496;10.020;2023-04-01T09:18:31;1.37;;;0.90;;
26050;SDS011;13825;53.496;10.020;2023-04-01T09:21:23;1.63;;;1.00;;
26050;SDS011;13825;53.496;10.020;2023-04-01T09:27:11;1.20;;;0.90;;
26050;SDS011;13825;53.496;10.020;2023-04-01T09:29:49;1.20;;;0.70;;
26050;SDS011;13825;53.496;10.020;2023-04-01T09:32:52;0.93;;;0.80;;
26050;SDS011;13825;53.496;10.020;2023-04-01T09:35:35;1.40;;;1.13;;
26050;SDS011;13825;53.496;10.020;2023-04-01T09:38:20;2.53;;;0.90;;
26050;SDS011;13825;53.496;10.020;2023-04-01T09:40:53;0.73;;;0.73;;
26050;SDS011;13825;53.496;10.020;2023-04-01T09:43:26;1.57;;;1.10;;
26050;SDS011;13825;53.496;10.020;2023-04-01T09:49:03;1.00;;;0.77;;
26050;SDS011;13825;53.496;10.020;2023-04-01T09:51:48;1.10;;;0.90;;
26050;SDS011;13825;53.496;10.020;2023-04-01T09:54:29;2.40;;;1.67;;
26050;SDS011;13825;53.496;10.020;2023-04-01T09:57:09;1.60;;;1.50;;
26050;SDS011;13825;53.496;10.020;2023-04-01T10:00:07;1.13;;;1.03;;
26050;SDS011;13825;53.496;10.020;2023-04-01T10:02:54;2.20;;;1.07;;
26050;SDS011;13825;53.496;10.020;2023-04-01T10:08:54;0.47;;;0.47;;
26050;SDS011;13825;53.496;10.020;2023-04-01T10:18:00;0.77;;;0.77;;
26050;SDS011;13825;53.496;10.020;2023-04-01T10:20:59;0.70;;;0.70;;
26050;SDS011;13825;53.496;10.020;2023-04-01T10:39:02;0.73;;;0.60;;
26050;SDS011;13825;53.496;10.020;2023-04-01T10:41:51;0.80;;;0.80;;
26050;SDS011;13825;53.496;10.020;2023-04-01T10:48:03;0.80;;;0.80;;
26050;SDS011;13825;53.496;10.020;2023-04-01T10:51:01;0.70;;;0.60;;
26050;SDS011;13825;53.496;10.020;2023-04-01T10:53:42;1.07;;;0.90;;
26050;SDS011;13825;53.496;10.020;2023-04-01T10:56:34;0.63;;;0.63;;
26050;SDS011;13825;53.496;10.020;2023-04-01T10:59:15;1.13;;;0.83;;
26050;SDS011;13825;53.496;10.020;2023-04-01T11:18:09;2.53;;;0.70;;
26050;SDS011;13825;53.496;10.020;2023-04-01T12:10:40;1.70;;;1.40;;
26050;SDS011;13825;53.496;10.020;2023-04-01T12:13:18;1.73;;;1.13;;
26050;SDS011;13825;53.496;10.020;2023-04-01T12:16:02;1.70;;;1.60;;
26050;SDS011;13825;53.496;10.020;2023-04-01T12:18:56;2.07;;;1.60;;
26050;SDS011;13825;53.496;10.020;2023-04-01T12:21:33;3.47;;;1.77;;
26050;SDS011;13825;53.496;10.020;2023-04-01T12:33:24;2.23;;;1.70;;
26050;SDS011;13825;53.496;10.020;2023-04-01T12:39:11;2.00;;;1.73;;
26050;SDS011;13825;53.496;10.020;2023-04-01T13:05:47;2.50;;;1.83;;
26050;SDS011;13825;53.496;10.020;2023-04-01T13:11:54;2.80;;;2.10;;
26050;SDS011;13825;53.496;10.020;2023-04-01T13:17:31;2.77;;;2.07;;
26050;SDS011;13825;53.496;10.020;2023-04-01T13:20:06;2.60;;;2.03;;
26050;SDS011;13825;53.496;10.020;2023-04-01T13:22:48;2.37;;;2.07;;
26050;SDS011;13825;53.496;10.020;2023-04-01T13:25:31;4.30;;;1.80;;
26050;SDS011;13825;53.496;10.020;2023-04-01T13:28:08;2.10;;;1.90;;
26050;SDS011;13825;53.496;10.020;2023-04-01T13:36:18;8.27;;;2.43;;
26050;SDS011;13825;53.496;10.020;2023-04-01T13:39:09;2.73;;;2.30;;
26050;SDS011;13825;53.496;10.020;2023-04-01T13:41:54;4.50;;;1.80;;
26050;SDS011;13825;53.496;10.020;2023-04-01T13:44:32;2.07;;;1.63;;
26050;SDS011;13825;53.496;10.020;2023-04-01T13:47:06;2.50;;;2.20;;
26050;SDS011;13825;53.496;10.020;2023-04-01T13:53:04;3.63;;;2.03;;
26050;SDS011;13825;53.496;10.020;2023-04-01T13:55:56;2.87;;;2.00;;
26050;SDS011;13825;53.496;10.020;2023-04-01T13:58:44;4.50;;;1.83;;
26050;SDS011;13825;53.496;10.020;2023-04-01T14:01:25;6.03;;;2.60;;
26050;SDS011;13825;53.496;10.020;2023-04-01T14:07:01;3.23;;;1.90;;
26050;SDS011;13825;53.496;10.020;2023-04-01T14:12:27;3.23;;;2.00;;
26050;SDS011;13825;53.496;10.020;2023-04-01T14:15:14;2.67;;;2.00;;
26050;SDS011;13825;53.496;10.020;2023-04-01T14:21:17;3.53;;;2.00;;
26050;SDS011;13825;53.496;10.020;2023-04-01T14:24:08;4.33;;;2.13;;
26050;SDS011;13825;53.496;10.020;2023-04-01T14:30:20;3.30;;;2.10;;
26050;SDS011;13825;53.496;10.020;2023-04-01T14:32:55;2.83;;;2.10;;
26050;SDS011;13825;53.496;10.020;2023-04-01T14:35:29;3.37;;;2.17;;
26050;SDS011;13825;53.496;10.020;2023-04-01T14:38:11;3.07;;;2.03;;
26050;SDS011;13825;53.496;10.020;2023-04-01T14:40:55;4.00;;;2.37;;
26050;SDS011;13825;53.496;10.020;2023-04-01T14:43:35;5.53;;;2.57;;
26050;SDS011;13825;53.496;10.020;2023-04-01T14:46:10;3.63;;;2.47;;
26050;SDS011;13825;53.496;10.020;2023-04-01T14:48:49;5.63;;;2.60;;
26050;SDS011;13825;53.496;10.020;2023-04-01T14:51:28;3.87;;;3.00;;
26050;SDS011;13825;53.496;10.020;2023-04-01T14:54:00;4.50;;;2.60;;
26050;SDS011;13825;53.496;10.020;2023-04-01T14:56:43;3.70;;;2.80;;
26050;SDS011;13825;53.496;10.020;2023-04-01T14:59:14;5.37;;;3.00;;
26050;SDS011;13825;53.496;10.020;2023-04-01T15:01:58;4.37;;;2.80;;
26050;SDS011;13825;53.496;10.020;2023-04-01T15:04:34;5.20;;;2.87;;
26050;SDS011;13825;53.496;10.020;2023-04-01T15:07:12;4.83;;;2.80;;
26050;SDS011;13825;53.496;10.020;2023-04-01T15:09:50;8.43;;;2.60;;
26050;SDS011;13825;53.496;10.020;2023-04-01T15:12:26;4.43;;;2.77;;
26050;SDS011;13825;53.496;10.020;2023-04-01T15:14:59;5.47;;;2.80;;
26050;SDS011;13825;53.496;10.020;2023-04-01T15:17:35;3.63;;;2.53;;
26050;SDS011;13825;53.496;10.020;2023-04-01T15:20:12;5.23;;;2.77;;
26050;SDS011;13825;53.496;10.020;2023-04-01T15:22:46;4.57;;;2.77;;
26050;SDS011;13825;53.496;10.020;2023-04-01T15:25:23;5.67;;;3.07;;
26050;SDS011;13825;53.496;10.020;2023-04-01T15:27:55;3.53;;;2.87;;
26050;SDS011;13825;53.496;10.020;2023-04-01T15:30:32;4.20;;;2.73;;
26050;SDS011;13825;53.496;10.020;2023-04-01T15:33:06;5.50;;;3.23;;
26050;SDS011;13825;53.496;10.020;2023-04-01T15:35:39;8.87;;;3.23;;
26050;SDS011;13825;53.496;10.020;2023-04-01T15:38:12;5.90;;;3.20;;
26050;SDS011;13825;53.496;10.020;2023-04-01T15:40:43;4.57;;;3.17;;
26050;SDS011;13825;53.496;10.020;2023-04-01T15:43:14;6.97;;;3.07;;
26050;SDS011;13825;53.496;10.020;2023-04-01T15:45:49;8.00;;;3.17;;
26050;SDS011;13825;53.496;10.020;2023-04-01T15:48:23;7.73;;;3.43;;
26050;SDS011;13825;53.496;10.020;2023-04-01T15:50:54;6.57;;;3.23;;
26050;SDS011;13825;53.496;10.020;2023-04-01T15:53:35;7.07;;;2.97;;
26050;SDS011;13825;53.496;10.020;2023-04-01T15:56:10;4.10;;;2.60;;
26050;SDS011;13825;53.496;10.020;2023-04-01T15:59:19;9.10;;;3.20;;
26050;SDS011;13825;53.496;10.020;2023-04-01T16:01:58;6.13;;;2.83;;
26050;SDS011;13825;53.496;10.020;2023-04-01T16:04:40;4.47;;;3.27;;
26050;SDS011;13825;53.496;10.020;2023-04-01T16:10:09;7.37;;;3.43;;
26050;SDS011;13825;53.496;10.020;2023-04-01T16:12:47;5.47;;;3.23;;
26050;SDS011;13825;53.496;10.020;2023-04-01T16:15:21;5.93;;;3.33;;
26050;SDS011;13825;53.496;10.020;2023-04-01T16:20:45;6.97;;;3.50;;
26050;SDS011;13825;53.496;10.020;2023-04-01T16:23:17;6.97;;;3.60;;
26050;SDS011;13825;53.496;10.020;2023-04-01T16:25:46;11.73;;;4.43;;
26050;SDS011;13825;53.496;10.020;2023-04-01T16:28:18;3.97;;;2.87;;
26050;SDS011;13825;53.496;10.020;2023-04-01T16:30:47;6.00;;;3.30;;
26050;SDS011;13825;53.496;10.020;2023-04-01T16:33:31;4.70;;;3.17;;
26050;SDS011;13825;53.496;10.020;2023-04-01T16:46:45;5.03;;;3.40;;
26050;SDS011;13825;53.496;10.020;2023-04-01T16:49:29;4.30;;;3.33;;
26050;SDS011;13825;53.496;10.020;2023-04-01T16:52:03;8.53;;;3.97;;
26050;SDS011;13825;53.496;10.020;2023-04-01T16:54:35;7.93;;;3.70;;
26050;SDS011;13825;53.496;10.020;2023-04-01T16:57:10;6.60;;;3.90;;
26050;SDS011;13825;53.496;10.020;2023-04-01T16:59:44;9.50;;;3.90;;
26050;SDS011;13825;53.496;10.020;2023-04-01T17:02:20;8.83;;;4.03;;
26050;SDS011;13825;53.496;10.020;2023-04-01T17:04:57;8.27;;;4.07;;
26050;SDS011;13825;53.496;10.020;2023-04-01T17:07:27;8.47;;;4.00;;
26050;SDS011;13825;53.496;10.020;2023-04-01T17:10:05;7.63;;;4.03;;
26050;SDS011;13825;53.496;10.020;2023-04-01T17:12:40;5.50;;;3.70;;
26050;SDS011;13825;53.496;10.020;2023-04-01T17:23:04;6.43;;;3.73;;
26050;SDS011;13825;53.496;10.020;2023-04-01T17:25:49;10.27;;;3.90;;
26050;SDS011;13825;53.496;10.020;2023-04-01T17:28:24;4.73;;;3.30;;
26050;SDS011;13825;53.496;10.020;2023-04-01T17:30:56;9.40;;;4.13;;
26050;SDS011;13825;53.496;10.020;2023-04-01T17:36:16;5.67;;;3.60;;
26050;SDS011;13825;53.496;10.020;2023-04-01T17:38:53;8.03;;;4.03;;
26050;SDS011;13825;53.496;10.020;2023-04-01T17:41:29;8.87;;;4.10;;
26050;SDS011;13825;53.496;10.020;2023-04-01T17:44:01;8.10;;;4.23;;
26050;SDS011;13825;53.496;10.020;2023-04-01T17:46:31;6.70;;;3.50;;
26050;SDS011;13825;53.496;10.020;2023-04-01T17:49:02;6.93;;;3.67;;
26050;SDS011;13825;53.496;10.020;2023-04-01T17:51:56;5.17;;;3.93;;
26050;SDS011;13825;53.496;10.020;2023-04-01T17:54:46;5.60;;;3.17;;
26050;SDS011;13825;53.496;10.020;2023-04-01T17:57:30;5.63;;;3.63;;
26050;SDS011;13825;53.496;10.020;2023-04-01T18:00:00;4.50;;;2.70;;
26050;SDS011;13825;53.496;10.020;2023-04-01T18:02:31;5.23;;;3.33;;
26050;SDS011;13825;53.496;10.020;2023-04-01T18:07:49;6.13;;;3.00;;
26050;SDS011;13825;53.496;10.020;2023-04-01T18:10:28;5.03;;;2.73;;
26050;SDS011;13825;53.496;10.020;2023-04-01T18:13:05;4.07;;;3.17;;
26050;SDS011;13825;53.496;10.020;2023-04-01T18:15:37;6.80;;;3.00;;
26050;SDS011;13825;53.496;10.020;2023-04-01T18:18:11;4.60;;;3.20;;
26050;SDS011;13825;53.496;10.020;2023-04-01T18:20:48;4.60;;;3.23;;
26050;SDS011;13825;53.496;10.020;2023-04-01T18:23:24;6.03;;;2.90;;
26050;SDS011;13825;53.496;10.020;2023-04-01T18:26:02;6.73;;;2.50;;
26050;SDS011;13825;53.496;10.020;2023-04-01T18:28:36;5.37;;;2.90;;
26050;SDS011;13825;53.496;10.020;2023-04-01T18:31:08;4.83;;;2.80;;
26050;SDS011;13825;53.496;10.020;2023-04-01T18:33:49;3.57;;;2.90;;
26050;SDS011;13825;53.496;10.020;2023-04-01T18:36:24;3.37;;;2.57;;
26050;SDS011;13825;53.496;10.020;2023-04-01T18:38:54;5.70;;;2.67;;
26050;SDS011;13825;53.496;10.020;2023-04-01T18:41:32;7.40;;;3.60;;
26050;SDS011;13825;53.496;10.020;2023-04-01T18:44:07;5.03;;;3.00;;
26050;SDS011;13825;53.496;10.020;2023-04-01T18:46:39;3.80;;;2.80;;
26050;SDS011;13825;53.496;10.020;2023-04-01T18:49:11;6.07;;;3.13;;
26050;SDS011;13825;53.496;10.020;2023-04-01T18:51:43;5.90;;;3.70;;
26050;SDS011;13825;53.496;10.020;2023-04-01T18:54:13;5.33;;;3.20;;
26050;SDS011;13825;53.496;10.020;2023-04-01T18:56:44;6.67;;;3.40;;
26050;SDS011;13825;53.496;10.020;2023-04-01T18:59:18;6.37;;;3.10;;
26050;SDS011;13825;53.496;10.020;2023-04-01T19:01:50;6.40;;;4.07;;
26050;SDS011;13825;53.496;10.020;2023-04-01T19:04:21;7.47;;;3.50;;
26050;SDS011;13825;53.496;10.020;2023-04-01T19:06:52;6.23;;;3.30;;
26050;SDS011;13825;53.496;10.020;2023-04-01T19:09:23;5.33;;;3.47;;
26050;SDS011;13825;53.496;10.020;2023-04-01T19:14:38;4.97;;;3.43;;
26050;SDS011;13825;53.496;10.020;2023-04-01T19:17:10;5.93;;;3.47;;
26050;SDS011;13825;53.496;10.020;2023-04-01T19:19:58;7.37;;;3.23;;
26050;SDS011;13825;53.496;10.020;2023-04-01T19:22:32;7.10;;;3.53;;
26050;SDS011;13825;53.496;10.020;2023-04-01T19:25:09;6.23;;;3.90;;
26050;SDS011;13825;53.496;10.020;2023-04-01T19:27:41;8.43;;;2.93;;
26050;SDS011;13825;53.496;10.020;2023-04-01T19:30:19;4.50;;;3.20;;
26050;SDS011;13825;53.496;10.020;2023-04-01T19:33:01;4.57;;;3.03;;
26050;SDS011;13825;53.496;10.020;2023-04-01T19:35:33;8.10;;;3.10;;
26050;SDS011;13825;53.496;10.020;2023-04-01T19:38:03;3.50;;;2.70;;
26050;SDS011;13825;53.496;10.020;2023-04-01T19:40:46;8.77;;;3.07;;
26050;SDS011;13825;53.496;10.020;2023-04-01T19:43:18;5.97;;;2.67;;
26050;SDS011;13825;53.496;10.020;2023-04-01T19:45:57;4.30;;;2.40;;
26050;SDS011;13825;53.496;10.020;2023-04-01T19:48:50;8.27;;;3.13;;
26050;SDS011;13825;53.496;10.020;2023-04-01T19:51:23;5.03;;;2.10;;
26050;SDS011;13825;53.496;10.020;2023-04-01T19:53:53;5.17;;;2.37;;
26050;SDS011;13825;53.496;10.020;2023-04-01T19:56:25;4.67;;;2.30;;
26050;SDS011;13825;53.496;10.020;2023-04-01T19:58:58;4.80;;;2.30;;
26050;SDS011;13825;53.496;10.020;2023-04-01T20:01:32;6.70;;;2.43;;
26050;SDS011;13825;53.496;10.020;2023-04-01T20:04:02;4.23;;;2.20;;
26050;SDS011;13825;53.496;10.020;2023-04-01T20:06:32;3.17;;;2.30;;
26050;SDS011;13825;53.496;10.020;2023-04-01T20:11:48;4.23;;;2.30;;
26050;SDS011;13825;53.496;10.020;2023-04-01T20:14:24;4.87;;;2.30;;
26050;SDS011;13825;53.496;10.020;2023-04-01T20:17:07;6.73;;;2.37;;
26050;SDS011;13825;53.496;10.020;2023-04-01T20:19:37;4.53;;;2.63;;
26050;SDS011;13825;53.496;10.020;2023-04-01T20:22:08;4.73;;;2.13;;
26050;SDS011;13825;53.496;10.020;2023-04-01T20:24:41;3.83;;;2.10;;
26050;SDS011;13825;53.496;10.020;2023-04-01T20:27:10;5.43;;;2.43;;
26050;SDS011;13825;53.496;10.020;2023-04-01T20:29:56;3.93;;;2.17;;
26050;SDS011;13825;53.496;10.020;2023-04-01T20:32:31;3.53;;;2.30;;
26050;SDS011;13825;53.496;10.020;2023-04-01T20:37:48;4.43;;;2.53;;
26050;SDS011;13825;53.496;10.020;2023-04-01T20:40:29;5.07;;;2.20;;
26050;SDS011;13825;53.496;10.020;2023-04-01T20:43:07;3.60;;;1.97;;
26050;SDS011;13825;53.496;10.020;2023-04-01T20:45:38;4.20;;;2.63;;
26050;SDS011;13825;53.496;10.020;2023-04-01T20:48:21;8.10;;;2.47;;
26050;SDS011;13825;53.496;10.020;2023-04-01T20:50:53;4.07;;;2.00;;
26050;SDS011;13825;53.496;10.020;2023-04-01T20:53:24;2.87;;;2.13;;
26050;SDS011;13825;53.496;10.020;2023-04-01T20:56:11;3.33;;;1.80;;
26050;SDS011;13825;53.496;10.020;2023-04-01T20:58:48;3.87;;;2.40;;
26050;SDS011;13825;53.496;10.020;2023-04-01T21:01:20;4.17;;;2.10;;
26050;SDS011;13825;53.496;10.020;2023-04-01T21:03:56;6.73;;;2.33;;
26050;SDS011;13825;53.496;10.020;2023-04-01T21:09:27;3.37;;;1.97;;
26050;SDS011;13825;53.496;10.020;2023-04-01T21:11:57;4.50;;;2.20;;
26050;SDS011;13825;53.496;10.020;2023-04-01T21:17:32;7.33;;;1.90;;
26050;SDS011;13825;53.496;10.020;2023-04-01T21:20:12;2.50;;;2.00;;
26050;SDS011;13825;53.496;10.020;2023-04-01T21:22:47;4.80;;;1.97;;
26050;SDS011;13825;53.496;10.020;2023-04-01T21:28:10;4.23;;;1.93;;
26050;SDS011;13825;53.496;10.020;2023-04-01T21:31:00;2.70;;;2.10;;
26050;SDS011;13825;53.496;10.020;2023-04-01T21:33:45;3.60;;;1.50;;
26050;SDS011;13825;53.496;10.020;2023-04-01T21:36:20;5.67;;;2.20;;
26050;SDS011;13825;53.496;10.020;2023-04-01T21:38:58;4.30;;;2.10;;
26050;SDS011;13825;53.496;10.020;2023-04-01T21:41:54;3.53;;;2.03;;
26050;SDS011;13825;53.496;10.020;2023-04-01T21:44:35;2.93;;;1.77;;
26050;SDS011;13825;53.496;10.020;2023-04-01T21:52:51;3.20;;;1.87;;
26050;SDS011;13825;53.496;10.020;2023-04-01T21:55:45;8.00;;;2.40;;
26050;SDS011;13825;53.496;10.020;2023-04-01T22:01:07;3.37;;;1.80;;
26050;SDS011;13825;53.496;10.020;2023-04-01T22:04:08;3.40;;;1.83;;
26050;SDS011;13825;53.496;10.020;2023-04-01T22:06:48;2.50;;;1.17;;
26050;SDS011;13825;53.496;10.020;2023-04-01T22:09:34;4.43;;;2.00;;
26050;SDS011;13825;53.496;10.020;2023-04-01T22:12:08;6.23;;;1.97;;
26050;SDS011;13825;53.496;10.020;2023-04-01T22:14:44;2.50;;;1.40;;
26050;SDS011;13825;53.496;10.020;2023-04-01T22:17:40;6.60;;;1.53;;
26050;SDS011;13825;53.496;10.020;2023-04-01T22:20:14;5.33;;;1.50;;
26050;SDS011;13825;53.496;10.020;2023-04-01T22:22:54;2.83;;;1.70;;
26050;SDS011;13825;53.496;10.020;2023-04-01T22:25:31;3.63;;;1.67;;
26050;SDS011;13825;53.496;10.020;2023-04-01T22:28:04;2.20;;;1.50;;
26050;SDS011;13825;53.496;10.020;2023-04-01T22:30:38;3.97;;;1.70;;
26050;SDS011;13825;53.496;10.020;2023-04-01T22:33:10;5.90;;;1.80;;
26050;SDS011;13825;53.496;10.020;2023-04-01T22:35:47;3.47;;;1.30;;
26050;SDS011;13825;53.496;10.020;2023-04-01T22:38:23;3.83;;;1.40;;
26050;SDS011;13825;53.496;10.020;2023-04-01T22:41:08;2.73;;;1.50;;
26050;SDS011;13825;53.496;10.020;2023-04-01T22:43:48;3.17;;;1.40;;
26050;SDS011;13825;53.496;10.020;2023-04-01T22:46:22;3.10;;;1.47;;
26050;SDS011;13825;53.496;10.020;2023-04-01T22:49:04;1.43;;;1.13;;
26050;SDS011;13825;53.496;10.020;2023-04-01T22:51:42;3.23;;;1.87;;
26050;SDS011;13825;53.496;10.020;2023-04-01T22:54:15;4.23;;;1.43;;
26050;SDS011;13825;53.496;10.020;2023-04-01T22:56:51;2.83;;;1.67;;
26050;SDS011;13825;53.496;10.020;2023-04-01T22:59:24;2.33;;;1.33;;
26050;SDS011;13825;53.496;10.020;2023-04-01T23:02:02;4.10;;;1.70;;
26050;SDS011;13825;53.496;10.020;2023-04-01T23:04:33;6.10;;;1.93;;
26050;SDS011;13825;53.496;10.020;2023-04-01T23:07:11;1.47;;;1.37;;
26050;SDS011;13825;53.496;10.020;2023-04-01T23:09:50;2.77;;;1.50;;
26050;SDS011;13825;53.496;10.020;2023-04-01T23:12:21;3.57;;;1.40;;
26050;SDS011;13825;53.496;10.020;2023-04-01T23:14:50;1.47;;;1.30;;
26050;SDS011;13825;53.496;10.020;2023-04-01T23:17:25;2.67;;;1.43;;
26050;SDS011;13825;53.496;10.020;2023-04-01T23:20:17;2.90;;;1.67;;
26050;SDS011;13825;53.496;10.020;2023-04-01T23:22:58;2.33;;;1.50;;
26050;SDS011;13825;53.496;10.020;2023-04-01T23:25:44;3.23;;;1.70;;
26050;SDS011;13825;53.496;10.020;2023-04-01T23:28:30;5.90;;;1.90;;
26050;SDS011;13825;53.496;10.020;2023-04-01T23:31:20;3.30;;;1.50;;
26050;SDS011;13825;53.496;10.020;2023-04-01T23:34:04;5.43;;;1.53;;
26050;SDS011;13825;53.496;10.020;2023-04-01T23:36:48;1.30;;;1.20;;
26050;SDS011;13825;53.496;10.020;2023-04-01T23:39:20;2.33;;;1.50;;
26050;SDS011;13825;53.496;10.020;2023-04-01T23:41:50;3.93;;;2.27;;
26050;SDS011;13825;53.496;10.020;2023-04-01T23:44:22;6.00;;;1.90;;
26050;SDS011;13825;53.496;10.020;2023-04-01T23:46:54;4.57;;;1.50;;
26050;SDS011;13825;53.496;10.020;2023-04-01T23:49:44;3.07;;;2.10;;
26050;SDS011;13825;53.496;10.020;2023-04-01T23:52:17;2.40;;;1.60;;
26050;SDS011;13825;53.496;10.020;2023-04-01T23:54:49;2.17;;;1.63;;
26050;SDS011;13825;53.496;10.020;2023-04-01T23:57:22;9.40;;;1.83;;
